Terminal Aerodrome Forecast
Issued by NWS Charleston, SC

Current Version | Previous Version | Text Only | Print | Product List | Glossary Off
Versions: 1 2 3 4 5 6 7 8 9 10 11 12 13 14 15

000
FTUS42 KCHS 251130
TAFCHS
TAF
KCHS 251130Z 2512/2612 VRB03KT P6SM SCT150
     FM251500 VRB03KT P6SM SCT040
     FM252000 VRB03KT 5SM -TSRA BR BKN040CB
      TEMPO 2520/2523 3SM TSRA BR BKN030CB
     FM260000 19006KT P6SM SCT040 BKN080
     FM260200 VRB03KT P6SM BKN100=

USA.gov is the U.S. government's official web portal to all federal, state and local government web resources and services.